sensor_id;sensor_type;location;lat;lon;timestamp;P1;durP1;ratioP1;P2;durP2;ratioP2
60999;SDS011;46879;45.658;11.814;2022-09-02T00:03:55;4.47;;;1.50;;
60999;SDS011;46879;45.658;11.814;2022-09-02T00:08:58;8.13;;;1.33;;
60999;SDS011;46879;45.658;11.814;2022-09-02T00:14:00;5.53;;;1.65;;
60999;SDS011;46879;45.658;11.814;2022-09-02T00:19:05;2.95;;;1.73;;
60999;SDS011;46879;45.658;11.814;2022-09-02T00:24:06;4.22;;;1.40;;
60999;SDS011;46879;45.658;11.814;2022-09-02T00:29:07;4.22;;;1.55;;
60999;SDS011;46879;45.658;11.814;2022-09-02T00:34:07;4.53;;;1.20;;
60999;SDS011;46879;45.658;11.814;2022-09-02T00:39:08;1.55;;;1.20;;
60999;SDS011;46879;45.658;11.814;2022-09-02T00:44:10;3.38;;;1.80;;
60999;SDS011;46879;45.658;11.814;2022-09-02T00:49:17;2.33;;;1.25;;
60999;SDS011;46879;45.658;11.814;2022-09-02T00:54:23;2.13;;;1.27;;
60999;SDS011;46879;45.658;11.814;2022-09-02T01:04:42;2.97;;;1.40;;
60999;SDS011;46879;45.658;11.814;2022-09-02T01:09:45;3.13;;;1.20;;
60999;SDS011;46879;45.658;11.814;2022-09-02T01:14:46;2.47;;;1.33;;
60999;SDS011;46879;45.658;11.814;2022-09-02T01:19:47;1.60;;;1.15;;
60999;SDS011;46879;45.658;11.814;2022-09-02T01:24:50;1.70;;;1.48;;
60999;SDS011;46879;45.658;11.814;2022-09-02T01:29:52;2.50;;;1.30;;
60999;SDS011;46879;45.658;11.814;2022-09-02T01:34:54;7.05;;;1.25;;
60999;SDS011;46879;45.658;11.814;2022-09-02T01:39:54;3.72;;;1.45;;
60999;SDS011;46879;45.658;11.814;2022-09-02T01:44:56;2.35;;;0.88;;
60999;SDS011;46879;45.658;11.814;2022-09-02T01:49:56;6.27;;;1.23;;
60999;SDS011;46879;45.658;11.814;2022-09-02T01:54:56;1.73;;;1.00;;
60999;SDS011;46879;45.658;11.814;2022-09-02T01:59:57;2.30;;;1.17;;
60999;SDS011;46879;45.658;11.814;2022-09-02T02:05:00;1.85;;;1.20;;
60999;SDS011;46879;45.658;11.814;2022-09-02T02:10:03;1.52;;;1.10;;
60999;SDS011;46879;45.658;11.814;2022-09-02T02:15:06;2.15;;;1.00;;
60999;SDS011;46879;45.658;11.814;2022-09-02T02:20:10;1.15;;;1.00;;
60999;SDS011;46879;45.658;11.814;2022-09-02T02:25:14;1.05;;;0.82;;
60999;SDS011;46879;45.658;11.814;2022-09-02T02:30:15;2.85;;;1.17;;
60999;SDS011;46879;45.658;11.814;2022-09-02T02:35:17;1.35;;;1.10;;
60999;SDS011;46879;45.658;11.814;2022-09-02T02:40:19;1.88;;;1.10;;
60999;SDS011;46879;45.658;11.814;2022-09-02T02:45:22;1.17;;;1.08;;
60999;SDS011;46879;45.658;11.814;2022-09-02T02:50:24;2.67;;;1.25;;
60999;SDS011;46879;45.658;11.814;2022-09-02T02:55:24;6.22;;;1.10;;
60999;SDS011;46879;45.658;11.814;2022-09-02T03:00:26;1.67;;;1.07;;
60999;SDS011;46879;45.658;11.814;2022-09-02T03:05:28;1.05;;;0.90;;
60999;SDS011;46879;45.658;11.814;2022-09-02T03:10:29;3.70;;;1.15;;
60999;SDS011;46879;45.658;11.814;2022-09-02T03:15:31;2.00;;;1.00;;
60999;SDS011;46879;45.658;11.814;2022-09-02T03:20:32;2.42;;;1.20;;
60999;SDS011;46879;45.658;11.814;2022-09-02T03:25:33;1.30;;;0.93;;
60999;SDS011;46879;45.658;11.814;2022-09-02T03:30:35;1.67;;;1.02;;
60999;SDS011;46879;45.658;11.814;2022-09-02T03:35:39;1.10;;;0.98;;
60999;SDS011;46879;45.658;11.814;2022-09-02T03:40:41;2.42;;;1.00;;
60999;SDS011;46879;45.658;11.814;2022-09-02T03:45:41;1.52;;;1.10;;
60999;SDS011;46879;45.658;11.814;2022-09-02T03:50:43;2.15;;;1.02;;
60999;SDS011;46879;45.658;11.814;2022-09-02T03:55:45;1.17;;;0.90;;
60999;SDS011;46879;45.658;11.814;2022-09-02T04:00:49;1.15;;;1.05;;
60999;SDS011;46879;45.658;11.814;2022-09-02T04:05:51;2.05;;;1.00;;
60999;SDS011;46879;45.658;11.814;2022-09-02T04:10:53;2.00;;;1.00;;
60999;SDS011;46879;45.658;11.814;2022-09-02T04:15:55;1.88;;;1.00;;
60999;SDS011;46879;45.658;11.814;2022-09-02T04:20:57;1.40;;;0.80;;
60999;SDS011;46879;45.658;11.814;2022-09-02T04:26:03;2.00;;;1.02;;
60999;SDS011;46879;45.658;11.814;2022-09-02T04:31:09;1.25;;;0.90;;
60999;SDS011;46879;45.658;11.814;2022-09-02T04:36:15;1.08;;;1.00;;
60999;SDS011;46879;45.658;11.814;2022-09-02T04:41:18;1.80;;;0.90;;
60999;SDS011;46879;45.658;11.814;2022-09-02T04:46:22;1.88;;;1.00;;
60999;SDS011;46879;45.658;11.814;2022-09-02T04:51:23;2.05;;;0.98;;
60999;SDS011;46879;45.658;11.814;2022-09-02T04:56:26;3.08;;;0.90;;
60999;SDS011;46879;45.658;11.814;2022-09-02T05:01:29;1.70;;;1.10;;
60999;SDS011;46879;45.658;11.814;2022-09-02T05:06:32;2.67;;;1.30;;
60999;SDS011;46879;45.658;11.814;2022-09-02T05:11:32;0.97;;;0.90;;
60999;SDS011;46879;45.658;11.814;2022-09-02T05:16:34;1.17;;;0.85;;
60999;SDS011;46879;45.658;11.814;2022-09-02T05:21:38;1.30;;;0.80;;
60999;SDS011;46879;45.658;11.814;2022-09-02T05:26:39;3.28;;;1.15;;
60999;SDS011;46879;45.658;11.814;2022-09-02T05:31:43;1.10;;;1.00;;
60999;SDS011;46879;45.658;11.814;2022-09-02T05:36:44;9.43;;;0.90;;
60999;SDS011;46879;45.658;11.814;2022-09-02T05:41:45;6.28;;;0.90;;
60999;SDS011;46879;45.658;11.814;2022-09-02T05:46:45;20.45;;;1.15;;
60999;SDS011;46879;45.658;11.814;2022-09-02T05:51:53;5.97;;;1.70;;
60999;SDS011;46879;45.658;11.814;2022-09-02T05:56:56;4.25;;;1.90;;
60999;SDS011;46879;45.658;11.814;2022-09-02T06:01:59;6.57;;;2.08;;
60999;SDS011;46879;45.658;11.814;2022-09-02T06:06:59;15.80;;;2.87;;
60999;SDS011;46879;45.658;11.814;2022-09-02T06:12:00;13.13;;;2.17;;
60999;SDS011;46879;45.658;11.814;2022-09-02T06:17:00;15.90;;;2.72;;
60999;SDS011;46879;45.658;11.814;2022-09-02T06:22:01;7.57;;;1.77;;
60999;SDS011;46879;45.658;11.814;2022-09-02T06:27:02;8.20;;;1.80;;
60999;SDS011;46879;45.658;11.814;2022-09-02T06:32:03;4.90;;;1.75;;
60999;SDS011;46879;45.658;11.814;2022-09-02T06:37:04;5.00;;;1.80;;
60999;SDS011;46879;45.658;11.814;2022-09-02T06:42:04;7.72;;;2.42;;
60999;SDS011;46879;45.658;11.814;2022-09-02T06:47:05;11.35;;;1.63;;
60999;SDS011;46879;45.658;11.814;2022-09-02T06:52:05;9.48;;;1.67;;
60999;SDS011;46879;45.658;11.814;2022-09-02T06:57:06;8.35;;;1.92;;
60999;SDS011;46879;45.658;11.814;2022-09-02T07:02:06;9.10;;;1.95;;
60999;SDS011;46879;45.658;11.814;2022-09-02T07:07:07;7.78;;;1.92;;
60999;SDS011;46879;45.658;11.814;2022-09-02T07:12:07;6.63;;;1.65;;
60999;SDS011;46879;45.658;11.814;2022-09-02T07:17:08;4.50;;;1.57;;
60999;SDS011;46879;45.658;11.814;2022-09-02T07:22:11;4.70;;;1.30;;
60999;SDS011;46879;45.658;11.814;2022-09-02T07:27:11;5.43;;;1.70;;
60999;SDS011;46879;45.658;11.814;2022-09-02T07:32:11;5.78;;;1.70;;
60999;SDS011;46879;45.658;11.814;2022-09-02T07:37:12;6.43;;;1.73;;
60999;SDS011;46879;45.658;11.814;2022-09-02T07:42:12;4.00;;;1.70;;
60999;SDS011;46879;45.658;11.814;2022-09-02T07:47:13;5.65;;;1.40;;
60999;SDS011;46879;45.658;11.814;2022-09-02T07:52:13;3.70;;;1.60;;
60999;SDS011;46879;45.658;11.814;2022-09-02T07:57:15;2.80;;;1.35;;
60999;SDS011;46879;45.658;11.814;2022-09-02T08:02:16;6.43;;;1.47;;
60999;SDS011;46879;45.658;11.814;2022-09-02T08:07:17;6.07;;;1.77;;
60999;SDS011;46879;45.658;11.814;2022-09-02T08:12:23;4.53;;;1.50;;
60999;SDS011;46879;45.658;11.814;2022-09-02T08:17:23;3.70;;;1.50;;
60999;SDS011;46879;45.658;11.814;2022-09-02T08:22:23;2.97;;;1.55;;
60999;SDS011;46879;45.658;11.814;2022-09-02T08:27:24;2.80;;;1.30;;
60999;SDS011;46879;45.658;11.814;2022-09-02T08:32:29;4.00;;;2.05;;
60999;SDS011;46879;45.658;11.814;2022-09-02T08:37:32;11.63;;;1.85;;
60999;SDS011;46879;45.658;11.814;2022-09-02T08:42:37;3.88;;;1.35;;
60999;SDS011;46879;45.658;11.814;2022-09-02T08:47:42;5.70;;;1.38;;
60999;SDS011;46879;45.658;11.814;2022-09-02T08:57:58;3.25;;;1.70;;
60999;SDS011;46879;45.658;11.814;2022-09-02T09:03:01;1.65;;;1.55;;
60999;SDS011;46879;45.658;11.814;2022-09-02T09:08:27;2.97;;;1.50;;
60999;SDS011;46879;45.658;11.814;2022-09-02T09:13:52;2.10;;;1.13;;
60999;SDS011;46879;45.658;11.814;2022-09-02T09:19:09;6.43;;;1.52;;
60999;SDS011;46879;45.658;11.814;2022-09-02T09:29:38;7.80;;;1.33;;
60999;SDS011;46879;45.658;11.814;2022-09-02T09:35:12;3.63;;;1.30;;
60999;SDS011;46879;45.658;11.814;2022-09-02T09:50:23;3.00;;;1.50;;
60999;SDS011;46879;45.658;11.814;2022-09-02T09:55:23;2.08;;;1.55;;
60999;SDS011;46879;45.658;11.814;2022-09-02T10:00:29;3.35;;;1.38;;
60999;SDS011;46879;45.658;11.814;2022-09-02T10:05:35;2.80;;;1.50;;
60999;SDS011;46879;45.658;11.814;2022-09-02T10:10:37;4.32;;;1.50;;
60999;SDS011;46879;45.658;11.814;2022-09-02T10:15:48;5.22;;;1.55;;
60999;SDS011;46879;45.658;11.814;2022-09-02T10:21:02;4.55;;;1.52;;
60999;SDS011;46879;45.658;11.814;2022-09-02T10:42:07;2.95;;;1.60;;
60999;SDS011;46879;45.658;11.814;2022-09-02T10:47:18;2.35;;;1.42;;
60999;SDS011;46879;45.658;11.814;2022-09-02T11:08:23;2.25;;;1.30;;
60999;SDS011;46879;45.658;11.814;2022-09-02T11:13:36;5.70;;;1.30;;
60999;SDS011;46879;45.658;11.814;2022-09-02T11:18:40;2.70;;;1.40;;
60999;SDS011;46879;45.658;11.814;2022-09-02T11:23:58;2.45;;;1.40;;
60999;SDS011;46879;45.658;11.814;2022-09-02T11:29:13;6.05;;;1.98;;
60999;SDS011;46879;45.658;11.814;2022-09-02T11:34:23;2.15;;;1.45;;
60999;SDS011;46879;45.658;11.814;2022-09-02T11:39:45;3.03;;;1.50;;
60999;SDS011;46879;45.658;11.814;2022-09-02T12:06:10;2.47;;;1.70;;
60999;SDS011;46879;45.658;11.814;2022-09-02T12:16:40;3.50;;;1.52;;
60999;SDS011;46879;45.658;11.814;2022-09-02T12:27:18;3.60;;;1.50;;
60999;SDS011;46879;45.658;11.814;2022-09-02T12:38:19;4.18;;;1.70;;
60999;SDS011;46879;45.658;11.814;2022-09-02T12:43:17;3.80;;;1.65;;
60999;SDS011;46879;45.658;11.814;2022-09-02T12:48:26;4.07;;;2.33;;
60999;SDS011;46879;45.658;11.814;2022-09-02T12:53:42;2.35;;;1.58;;
60999;SDS011;46879;45.658;11.814;2022-09-02T12:58:51;2.10;;;1.40;;
60999;SDS011;46879;45.658;11.814;2022-09-02T13:03:57;4.97;;;1.42;;
60999;SDS011;46879;45.658;11.814;2022-09-02T13:30:21;5.32;;;1.55;;
60999;SDS011;46879;45.658;11.814;2022-09-02T13:35:22;5.07;;;1.98;;
60999;SDS011;46879;45.658;11.814;2022-09-02T13:40:26;10.10;;;1.75;;
60999;SDS011;46879;45.658;11.814;2022-09-02T13:45:29;9.77;;;2.17;;
60999;SDS011;46879;45.658;11.814;2022-09-02T13:50:34;9.27;;;2.17;;
60999;SDS011;46879;45.658;11.814;2022-09-02T13:55:35;7.18;;;1.90;;
60999;SDS011;46879;45.658;11.814;2022-09-02T14:00:38;3.92;;;1.92;;
60999;SDS011;46879;45.658;11.814;2022-09-02T14:05:40;7.20;;;1.75;;
60999;SDS011;46879;45.658;11.814;2022-09-02T14:10:44;8.68;;;1.88;;
60999;SDS011;46879;45.658;11.814;2022-09-02T14:15:47;10.00;;;1.73;;
60999;SDS011;46879;45.658;11.814;2022-09-02T14:20:57;9.70;;;2.10;;
60999;SDS011;46879;45.658;11.814;2022-09-02T14:25:59;9.40;;;2.40;;
60999;SDS011;46879;45.658;11.814;2022-09-02T14:31:02;12.65;;;2.30;;
60999;SDS011;46879;45.658;11.814;2022-09-02T14:36:12;4.38;;;2.20;;
60999;SDS011;46879;45.658;11.814;2022-09-02T14:41:36;10.07;;;2.60;;
60999;SDS011;46879;45.658;11.814;2022-09-02T14:46:47;11.75;;;2.45;;
60999;SDS011;46879;45.658;11.814;2022-09-02T14:51:54;8.77;;;2.35;;
60999;SDS011;46879;45.658;11.814;2022-09-02T14:56:56;17.50;;;2.80;;
60999;SDS011;46879;45.658;11.814;2022-09-02T15:01:57;23.20;;;3.07;;
60999;SDS011;46879;45.658;11.814;2022-09-02T15:06:58;21.52;;;3.15;;
60999;SDS011;46879;45.658;11.814;2022-09-02T15:12:00;18.25;;;3.17;;
60999;SDS011;46879;45.658;11.814;2022-09-02T15:17:00;21.90;;;3.80;;
60999;SDS011;46879;45.658;11.814;2022-09-02T15:22:02;22.17;;;3.08;;
60999;SDS011;46879;45.658;11.814;2022-09-02T15:27:02;16.17;;;2.43;;
60999;SDS011;46879;45.658;11.814;2022-09-02T15:32:03;17.67;;;3.53;;
60999;SDS011;46879;45.658;11.814;2022-09-02T15:37:04;5.35;;;2.35;;
60999;SDS011;46879;45.658;11.814;2022-09-02T15:42:05;11.98;;;2.55;;
60999;SDS011;46879;45.658;11.814;2022-09-02T15:47:05;12.03;;;2.67;;
60999;SDS011;46879;45.658;11.814;2022-09-02T15:52:06;13.33;;;2.40;;
60999;SDS011;46879;45.658;11.814;2022-09-02T15:57:06;8.90;;;2.30;;
60999;SDS011;46879;45.658;11.814;2022-09-02T16:02:06;12.27;;;2.43;;
60999;SDS011;46879;45.658;11.814;2022-09-02T16:07:07;9.07;;;2.27;;
60999;SDS011;46879;45.658;11.814;2022-09-02T16:12:07;7.15;;;2.15;;
60999;SDS011;46879;45.658;11.814;2022-09-02T16:17:08;6.90;;;2.05;;
60999;SDS011;46879;45.658;11.814;2022-09-02T16:22:09;7.97;;;2.05;;
60999;SDS011;46879;45.658;11.814;2022-09-02T16:27:09;6.60;;;2.03;;
60999;SDS011;46879;45.658;11.814;2022-09-02T16:32:10;4.47;;;1.80;;
60999;SDS011;46879;45.658;11.814;2022-09-02T16:37:10;5.13;;;2.10;;
60999;SDS011;46879;45.658;11.814;2022-09-02T16:42:10;8.57;;;1.90;;
60999;SDS011;46879;45.658;11.814;2022-09-02T16:47:11;7.03;;;2.47;;
60999;SDS011;46879;45.658;11.814;2022-09-02T16:52:11;11.80;;;2.13;;
60999;SDS011;46879;45.658;11.814;2022-09-02T16:57:12;9.60;;;1.80;;
60999;SDS011;46879;45.658;11.814;2022-09-02T17:02:12;6.00;;;2.17;;
60999;SDS011;46879;45.658;11.814;2022-09-02T17:07:12;3.57;;;2.10;;
60999;SDS011;46879;45.658;11.814;2022-09-02T17:12:13;7.23;;;1.90;;
60999;SDS011;46879;45.658;11.814;2022-09-02T17:17:13;4.63;;;1.60;;
60999;SDS011;46879;45.658;11.814;2022-09-02T17:22:16;4.28;;;1.90;;
60999;SDS011;46879;45.658;11.814;2022-09-02T17:27:16;3.30;;;1.77;;
60999;SDS011;46879;45.658;11.814;2022-09-02T17:32:17;5.13;;;1.90;;
60999;SDS011;46879;45.658;11.814;2022-09-02T17:37:18;4.68;;;1.90;;
60999;SDS011;46879;45.658;11.814;2022-09-02T17:42:20;5.25;;;2.10;;
60999;SDS011;46879;45.658;11.814;2022-09-02T17:47:21;4.00;;;1.77;;
60999;SDS011;46879;45.658;11.814;2022-09-02T17:52:22;4.03;;;1.90;;
60999;SDS011;46879;45.658;11.814;2022-09-02T17:57:36;2.95;;;1.60;;
60999;SDS011;46879;45.658;11.814;2022-09-02T18:13:09;4.97;;;1.73;;
60999;SDS011;46879;45.658;11.814;2022-09-02T18:18:13;2.78;;;1.50;;
60999;SDS011;46879;45.658;11.814;2022-09-02T18:49:13;5.50;;;1.83;;
60999;SDS011;46879;45.658;11.814;2022-09-02T18:54:16;4.57;;;1.85;;
60999;SDS011;46879;45.658;11.814;2022-09-02T19:04:31;2.13;;;1.67;;
60999;SDS011;46879;45.658;11.814;2022-09-02T19:09:33;2.47;;;1.55;;
60999;SDS011;46879;45.658;11.814;2022-09-02T19:14:36;4.03;;;1.85;;
60999;SDS011;46879;45.658;11.814;2022-09-02T19:19:38;3.67;;;1.42;;
60999;SDS011;46879;45.658;11.814;2022-09-02T19:24:43;2.55;;;1.75;;
60999;SDS011;46879;45.658;11.814;2022-09-02T19:29:49;2.08;;;1.40;;
60999;SDS011;46879;45.658;11.814;2022-09-02T19:34:55;1.92;;;1.58;;
60999;SDS011;46879;45.658;11.814;2022-09-02T19:39:56;2.88;;;2.03;;
60999;SDS011;46879;45.658;11.814;2022-09-02T19:45:03;4.13;;;1.60;;
60999;SDS011;46879;45.658;11.814;2022-09-02T19:50:04;5.07;;;1.65;;
60999;SDS011;46879;45.658;11.814;2022-09-02T19:55:06;2.58;;;1.60;;
60999;SDS011;46879;45.658;11.814;2022-09-02T20:00:07;4.45;;;1.52;;
60999;SDS011;46879;45.658;11.814;2022-09-02T20:05:09;3.40;;;1.83;;
60999;SDS011;46879;45.658;11.814;2022-09-02T20:10:11;2.58;;;2.00;;
60999;SDS011;46879;45.658;11.814;2022-09-02T20:15:12;4.57;;;2.10;;
60999;SDS011;46879;45.658;11.814;2022-09-02T20:20:15;3.47;;;1.60;;
60999;SDS011;46879;45.658;11.814;2022-09-02T20:25:18;2.75;;;1.80;;
60999;SDS011;46879;45.658;11.814;2022-09-02T20:30:22;5.97;;;2.30;;
60999;SDS011;46879;45.658;11.814;2022-09-02T20:46:00;3.88;;;1.90;;
60999;SDS011;46879;45.658;11.814;2022-09-02T20:51:19;2.38;;;1.67;;
60999;SDS011;46879;45.658;11.814;2022-09-02T20:56:28;4.37;;;1.90;;
60999;SDS011;46879;45.658;11.814;2022-09-02T21:01:33;4.97;;;1.88;;
60999;SDS011;46879;45.658;11.814;2022-09-02T21:06:36;4.43;;;1.83;;
60999;SDS011;46879;45.658;11.814;2022-09-02T21:11:44;3.08;;;1.95;;
60999;SDS011;46879;45.658;11.814;2022-09-02T21:17:04;5.38;;;2.03;;
60999;SDS011;46879;45.658;11.814;2022-09-02T21:27:22;2.38;;;1.80;;
60999;SDS011;46879;45.658;11.814;2022-09-02T21:32:29;6.25;;;2.20;;
60999;SDS011;46879;45.658;11.814;2022-09-02T21:37:44;4.22;;;2.00;;
60999;SDS011;46879;45.658;11.814;2022-09-02T21:53:33;2.90;;;1.70;;
60999;SDS011;46879;45.658;11.814;2022-09-02T22:03:57;3.95;;;1.90;;
60999;SDS011;46879;45.658;11.814;2022-09-02T22:09:09;2.83;;;1.90;;
60999;SDS011;46879;45.658;11.814;2022-09-02T22:14:57;4.85;;;2.20;;
60999;SDS011;46879;45.658;11.814;2022-09-02T22:19:43;4.78;;;1.75;;
60999;SDS011;46879;45.658;11.814;2022-09-02T22:24:44;2.65;;;2.00;;
60999;SDS011;46879;45.658;11.814;2022-09-02T22:30:04;2.17;;;1.98;;
60999;SDS011;46879;45.658;11.814;2022-09-02T22:40:27;2.45;;;2.00;;
60999;SDS011;46879;45.658;11.814;2022-09-02T22:45:44;4.75;;;2.25;;
60999;SDS011;46879;45.658;11.814;2022-09-02T22:51:13;4.85;;;2.17;;
60999;SDS011;46879;45.658;11.814;2022-09-02T23:01:50;3.92;;;2.13;;
60999;SDS011;46879;45.658;11.814;2022-09-02T23:06:55;3.13;;;2.03;;
60999;SDS011;46879;45.658;11.814;2022-09-02T23:17:13;5.10;;;2.05;;
60999;SDS011;46879;45.658;11.814;2022-09-02T23:27:35;2.35;;;1.80;;
60999;SDS011;46879;45.658;11.814;2022-09-02T23:43:25;4.88;;;2.13;;
60999;SDS011;46879;45.658;11.814;2022-09-02T23:54:15;3.17;;;1.90;;
